International Virtual Aviation Organisation

Eastern Europe and Northern Asia MCD

 
UWOO 200930Z 13008MPS 100V160 CAVOK 09/M13 Q1031 R08/CLRD65 NOSIG RMK QFE762/1016
QNH:(hPa/inHg/mmHg)1031 / 30.45 / 773
QFE:(hPa/inHg/mmHg)1017 / 30.02 / 763
Temperature9
Dew Point-13
Visibility> 10000
WeatherCAVOK
Cloud Cover
Transition Height700 m./2700 ft.
Transition LevelFL40
SQUAWK